createdAt,value
2019-01-20T00:02:23.018Z,6.10
2019-01-20T00:04:53.002Z,6.10
2019-01-20T00:07:23.045Z,6.10
2019-01-20T00:09:53.503Z,6.10
2019-01-20T00:12:23.573Z,6.00
2019-01-20T00:14:53.617Z,5.90
2019-01-20T00:17:23.829Z,6.10
2019-01-20T00:19:53.725Z,6.00
2019-01-20T00:22:23.484Z,6.10
2019-01-20T00:24:53.236Z,6.10
2019-01-20T00:27:23.119Z,6.00
2019-01-20T00:29:52.987Z,6.10
2019-01-20T00:32:22.948Z,6.10
2019-01-20T00:34:53.108Z,6.10
2019-01-20T00:37:23.737Z,6.10
2019-01-20T00:39:54.085Z,6.10
2019-01-20T00:42:24.222Z,6.10
2019-01-20T00:44:54.217Z,6.10
2019-01-20T00:47:24.371Z,6.10
2019-01-20T00:49:54.560Z,6.10
2019-01-20T00:52:24.524Z,6.10
2019-01-20T00:54:54.900Z,6.10
2019-01-20T00:57:24.937Z,6.10
2019-01-20T00:59:54.924Z,6.10
2019-01-20T01:02:24.777Z,6.10
2019-01-20T01:04:54.738Z,6.10
2019-01-20T01:07:24.919Z,6.00
2019-01-20T01:09:55.093Z,6.10
2019-01-20T01:12:26.464Z,6.10
2019-01-20T01:14:56.357Z,6.10
2019-01-20T01:17:26.513Z,6.00
2019-01-20T01:19:56.589Z,6.10
2019-01-20T01:22:26.809Z,6.00
2019-01-20T01:24:56.721Z,6.10
2019-01-20T01:27:26.785Z,6.10
2019-01-20T01:29:56.797Z,6.10
2019-01-20T01:32:27.335Z,6.00
2019-01-20T01:34:57.338Z,6.00
2019-01-20T01:37:27.330Z,6.00
2019-01-20T01:39:57.777Z,6.00
2019-01-20T01:42:27.551Z,6.00
2019-01-20T01:44:57.617Z,6.00
2019-01-20T01:47:27.707Z,6.00
2019-01-20T01:49:57.809Z,6.00
2019-01-20T01:52:27.933Z,5.90
2019-01-20T01:54:58.096Z,6.00
2019-01-20T01:57:29.447Z,6.00
2019-01-20T01:59:59.648Z,5.90
2019-01-20T02:02:29.745Z,5.90
2019-01-20T02:05:00.217Z,5.90
2019-01-20T02:07:30.195Z,5.90
2019-01-20T02:10:00.225Z,5.90
2019-01-20T02:12:30.110Z,5.90
2019-01-20T02:15:00.274Z,5.90
2019-01-20T02:17:30.356Z,5.90
2019-01-20T02:20:01.370Z,5.90
2019-01-20T02:22:31.508Z,5.90
2019-01-20T02:25:01.552Z,5.90
2019-01-20T02:27:32.546Z,5.90
2019-01-20T02:30:02.790Z,5.90
2019-01-20T02:32:32.796Z,5.90
2019-01-20T02:35:02.854Z,5.90
2019-01-20T02:37:33.040Z,5.80
2019-01-20T02:40:03.099Z,5.90
2019-01-20T02:42:33.295Z,5.80
2019-01-20T02:45:03.336Z,5.80
2019-01-20T02:47:33.307Z,5.70
2019-01-20T02:50:03.533Z,5.80
2019-01-20T02:52:33.577Z,5.80
2019-01-20T02:55:03.555Z,5.80
2019-01-20T02:57:33.785Z,5.80
2019-01-20T03:00:05.857Z,5.80
2019-01-20T03:02:36.110Z,5.80
2019-01-20T03:05:07.825Z,5.80
2019-01-20T03:07:38.084Z,5.80
2019-01-20T03:10:08.716Z,5.70
2019-01-20T03:12:38.862Z,5.70
2019-01-20T03:15:09.730Z,5.70
2019-01-20T03:17:39.797Z,5.70
2019-01-20T03:20:12.846Z,5.70
2019-01-20T03:22:42.992Z,5.70
2019-01-20T03:25:14.409Z,5.70
2019-01-20T03:27:44.344Z,5.70
2019-01-20T03:30:18.905Z,5.70
2019-01-20T03:32:48.879Z,5.70
2019-01-20T03:35:22.843Z,5.70
2019-01-20T03:37:53.021Z,5.70
2019-01-20T03:40:23.216Z,5.70
2019-01-20T03:42:53.362Z,5.70
2019-01-20T03:45:23.240Z,5.70
2019-01-20T03:47:53.288Z,5.60
2019-01-20T03:50:23.182Z,5.60
2019-01-20T03:52:53.241Z,5.60
2019-01-20T03:55:23.423Z,5.60
2019-01-20T03:57:53.468Z,5.60
2019-01-20T04:00:24.785Z,5.60
2019-01-20T04:03:00.052Z,5.60
2019-01-20T04:05:30.234Z,5.60
2019-01-20T04:08:00.390Z,5.60
2019-01-20T04:10:30.377Z,5.60
2019-01-20T04:13:00.416Z,5.60
2019-01-20T04:15:30.512Z,5.60
2019-01-20T04:18:00.912Z,5.50
2019-01-20T04:20:31.635Z,5.50
2019-01-20T04:23:02.174Z,5.50
2019-01-20T04:25:32.808Z,5.50
2019-01-20T04:28:03.097Z,5.50
2019-01-20T04:30:33.264Z,5.50
2019-01-20T04:33:03.231Z,5.50
2019-01-20T04:35:33.299Z,5.50
2019-01-20T04:38:03.304Z,5.50
2019-01-20T04:40:33.149Z,5.50
2019-01-20T04:43:03.244Z,5.50
2019-01-20T04:45:33.271Z,5.50
2019-01-20T04:48:03.384Z,5.50
2019-01-20T04:50:33.403Z,5.50
2019-01-20T04:53:03.421Z,5.40
2019-01-20T04:55:33.384Z,5.40
2019-01-20T04:58:03.444Z,5.40
2019-01-20T05:00:33.603Z,5.40
2019-01-20T05:03:03.685Z,5.40
2019-01-20T05:05:33.633Z,5.40
2019-01-20T05:08:03.801Z,5.30
2019-01-20T05:10:33.771Z,5.30
2019-01-20T05:13:03.858Z,5.30
2019-01-20T05:15:33.905Z,5.40
2019-01-20T05:18:04.300Z,5.40
2019-01-20T05:20:35.013Z,5.40
2019-01-20T05:23:05.044Z,5.40
2019-01-20T05:25:35.012Z,5.30
2019-01-20T05:28:05.072Z,5.30
2019-01-20T05:30:35.161Z,5.30
2019-01-20T05:33:05.204Z,5.30
2019-01-20T05:35:35.268Z,5.30
2019-01-20T05:38:05.351Z,5.30
2019-01-20T05:40:35.076Z,5.30
2019-01-20T05:43:04.751Z,5.30
2019-01-20T05:45:34.534Z,5.20
2019-01-20T05:48:04.369Z,5.30
2019-01-20T05:50:34.305Z,5.30
2019-01-20T05:53:04.153Z,5.30
2019-01-20T05:55:34.108Z,5.30
2019-01-20T05:58:04.182Z,5.20
2019-01-20T06:00:35.068Z,5.20
2019-01-20T06:03:05.334Z,5.20
2019-01-20T06:05:35.216Z,5.20
2019-01-20T06:08:05.176Z,5.20
2019-01-20T06:10:35.557Z,5.20
2019-01-20T06:13:05.609Z,5.20
2019-01-20T06:15:35.801Z,5.20
2019-01-20T06:18:06.168Z,5.20
2019-01-20T06:20:36.128Z,5.20
2019-01-20T06:23:06.287Z,5.20
2019-01-20T06:25:36.285Z,5.20
2019-01-20T06:28:06.329Z,5.20
2019-01-20T06:30:36.508Z,5.20
2019-01-20T06:33:06.762Z,5.20
2019-01-20T06:35:36.816Z,5.10
2019-01-20T06:38:07.107Z,5.10
2019-01-20T06:40:37.277Z,5.10
2019-01-20T06:43:07.344Z,5.00
2019-01-20T06:45:39.168Z,4.70
2019-01-20T06:48:09.213Z,5.00
2019-01-20T06:50:39.572Z,5.00
2019-01-20T06:53:09.580Z,5.00
2019-01-20T06:55:39.544Z,5.00
2019-01-20T06:58:09.509Z,5.00
2019-01-20T07:00:39.778Z,5.10
2019-01-20T07:03:09.837Z,5.00
2019-01-20T07:05:39.904Z,5.00
2019-01-20T07:08:09.824Z,5.00
2019-01-20T07:10:39.882Z,5.00
2019-01-20T07:13:11.348Z,5.00
2019-01-20T07:15:41.550Z,5.00
2019-01-20T07:18:11.332Z,5.00
2019-01-20T07:20:41.592Z,5.00
2019-01-20T07:23:12.142Z,5.00
2019-01-20T07:25:42.129Z,5.00
2019-01-20T07:28:12.212Z,5.00
2019-01-20T07:30:42.273Z,5.00
2019-01-20T07:33:12.354Z,5.00
2019-01-20T07:35:42.393Z,5.00
2019-01-20T07:38:12.576Z,4.50
2019-01-20T07:40:42.625Z,4.30
2019-01-20T07:43:16.710Z,4.70
2019-01-20T07:45:44.409Z,4.90
2019-01-20T07:48:14.380Z,5.00
2019-01-20T07:50:44.351Z,5.00
2019-01-20T07:53:14.517Z,5.00
2019-01-20T07:55:44.574Z,5.00
2019-01-20T07:58:14.657Z,5.00
2019-01-20T08:00:44.844Z,5.00
2019-01-20T08:03:15.800Z,5.00
2019-01-20T08:05:45.781Z,5.00
2019-01-20T08:08:15.751Z,5.00
2019-01-20T08:10:45.792Z,5.00
2019-01-20T08:13:15.676Z,4.90
2019-01-20T08:15:45.646Z,4.80
2019-01-20T08:18:15.718Z,4.90
2019-01-20T08:20:45.666Z,4.90
2019-01-20T08:23:15.847Z,4.90
2019-01-20T08:25:45.800Z,4.90
2019-01-20T08:28:15.891Z,4.90
2019-01-20T08:30:45.920Z,4.90
2019-01-20T08:33:16.014Z,4.90
2019-01-20T08:35:46.014Z,4.90
2019-01-20T08:38:16.240Z,5.00
2019-01-20T08:40:46.298Z,4.90
2019-01-20T08:43:16.072Z,4.90
2019-01-20T08:46:28.224Z,4.90
2019-01-20T08:48:58.191Z,4.90
2019-01-20T08:51:28.152Z,4.90
2019-01-20T08:53:58.229Z,4.90
2019-01-20T08:56:28.186Z,4.90
2019-01-20T08:58:59.413Z,4.90
2019-01-20T09:01:29.756Z,4.80
2019-01-20T09:04:00.139Z,4.70
2019-01-20T09:06:31.165Z,4.80
2019-01-20T09:09:01.189Z,4.70
2019-01-20T09:11:31.416Z,4.80
2019-01-20T09:14:01.317Z,4.80
2019-01-20T09:16:31.276Z,4.60
2019-01-20T09:19:01.369Z,4.40
2019-01-20T09:21:31.326Z,4.50
2019-01-20T09:24:01.285Z,4.50
2019-01-20T09:26:31.424Z,4.60
2019-01-20T09:29:01.477Z,4.80
2019-01-20T09:31:31.670Z,4.80
2019-01-20T09:34:01.693Z,4.80
2019-01-20T09:36:31.582Z,4.80
2019-01-20T09:39:01.732Z,4.90
2019-01-20T09:41:31.717Z,4.90
2019-01-20T09:44:01.773Z,4.90
2019-01-20T09:46:31.866Z,4.90
2019-01-20T09:49:02.018Z,4.90
2019-01-20T09:51:32.076Z,4.80
2019-01-20T09:54:02.729Z,4.90
2019-01-20T09:56:32.930Z,4.90
2019-01-20T09:59:02.908Z,5.50
2019-01-20T10:01:32.972Z,6.10
2019-01-20T10:04:02.936Z,6.50
2019-01-20T10:06:33.000Z,6.70
2019-01-20T10:09:03.232Z,6.90
2019-01-20T10:11:33.249Z,7.00
2019-01-20T10:14:03.196Z,7.00
2019-01-20T10:16:33.360Z,7.00
2019-01-20T10:19:03.445Z,7.10
2019-01-20T10:21:33.618Z,7.10
2019-01-20T10:24:03.768Z,7.10
2019-01-20T10:26:33.524Z,7.10
2019-01-20T10:29:03.594Z,7.10
2019-01-20T10:31:33.684Z,7.10
2019-01-20T10:34:03.605Z,7.20
2019-01-20T10:36:33.710Z,7.30
2019-01-20T10:39:06.084Z,7.30
2019-01-20T10:41:36.201Z,7.20
2019-01-20T10:44:06.369Z,6.80
2019-01-20T10:46:36.333Z,6.30
2019-01-20T10:49:06.388Z,5.90
2019-01-20T10:51:36.473Z,5.70
2019-01-20T10:54:07.269Z,5.20
2019-01-20T10:56:37.407Z,5.30
2019-01-20T10:59:07.480Z,5.10
2019-01-20T11:01:37.554Z,4.50
2019-01-20T11:04:08.986Z,4.70
2019-01-20T11:09:08.933Z,4.90
2019-01-20T11:11:38.894Z,4.20
2019-01-20T11:14:10.233Z,4.90
2019-01-20T11:16:40.269Z,5.20
2019-01-20T11:19:10.346Z,5.30
2019-01-20T11:21:40.406Z,5.50
2019-01-20T11:24:10.677Z,5.60
2019-01-20T11:26:40.844Z,5.70
2019-01-20T11:29:10.808Z,5.60
2019-01-20T11:31:40.872Z,5.20
2019-01-20T11:34:10.842Z,4.90
2019-01-20T11:36:40.900Z,4.60
2019-01-20T11:39:11.340Z,4.80
2019-01-20T11:41:41.549Z,4.50
2019-01-20T11:44:16.829Z,4.70
2019-01-20T11:46:43.326Z,4.80
2019-01-20T11:49:13.404Z,4.70
2019-01-20T11:51:43.350Z,4.80
2019-01-20T11:54:13.334Z,4.60
2019-01-20T11:56:43.288Z,4.80
2019-01-20T11:59:13.360Z,4.90
2019-01-20T12:01:43.519Z,5.00
2019-01-20T12:04:13.785Z,4.60
2019-01-20T12:06:44.023Z,4.70
2019-01-20T12:09:13.938Z,4.60
2019-01-20T12:11:44.205Z,4.70
2019-01-20T12:14:14.389Z,4.70
2019-01-20T12:16:44.557Z,4.70
2019-01-20T12:19:14.614Z,4.90
2019-01-20T12:21:44.594Z,5.20
2019-01-20T12:24:14.448Z,5.40
2019-01-20T12:26:44.409Z,5.50
2019-01-20T12:29:14.385Z,5.60
2019-01-20T12:31:44.243Z,5.30
2019-01-20T12:34:14.196Z,5.30
2019-01-20T12:36:44.371Z,5.00
2019-01-20T12:39:14.372Z,4.60
2019-01-20T12:41:44.373Z,4.60
2019-01-20T12:44:14.472Z,4.60
2019-01-20T12:46:44.606Z,4.80
2019-01-20T12:49:14.501Z,5.20
2019-01-20T12:51:44.322Z,4.80
2019-01-20T12:54:14.477Z,4.80
2019-01-20T12:56:44.553Z,5.10
2019-01-20T12:59:14.405Z,5.00
2019-01-20T13:01:44.386Z,5.30
2019-01-20T13:04:14.457Z,5.00
2019-01-20T13:06:44.533Z,4.40
2019-01-20T13:09:14.551Z,4.60
2019-01-20T13:11:45.854Z,4.90
2019-01-20T13:14:15.836Z,5.10
2019-01-20T13:16:45.927Z,5.10
2019-01-20T13:19:15.884Z,5.10
2019-01-20T13:21:46.157Z,4.80
2019-01-20T13:24:16.416Z,5.10
2019-01-20T13:26:46.392Z,5.20
2019-01-20T13:29:16.341Z,4.50
2019-01-20T13:31:46.336Z,4.60
2019-01-20T13:34:16.388Z,5.10
2019-01-20T13:36:46.425Z,4.80
2019-01-20T13:39:16.691Z,5.30
2019-01-20T13:41:46.772Z,5.20
2019-01-20T13:44:16.715Z,5.10
2019-01-20T13:46:46.704Z,4.90
2019-01-20T13:49:16.760Z,4.60
2019-01-20T13:51:46.837Z,4.50
2019-01-20T13:54:16.988Z,4.40
2019-01-20T13:56:47.177Z,5.00
2019-01-20T13:59:17.220Z,4.60
2019-01-20T14:01:47.192Z,4.30
2019-01-20T14:04:17.156Z,4.50
2019-01-20T14:06:47.337Z,4.60
2019-01-20T14:09:17.644Z,4.50
2019-01-20T14:11:47.571Z,4.50
2019-01-20T14:14:17.714Z,4.50
2019-01-20T14:16:48.013Z,4.90
2019-01-20T14:19:21.873Z,5.10
2019-01-20T14:24:18.772Z,4.30
2019-01-20T14:26:48.838Z,3.70
2019-01-20T14:29:19.023Z,4.30
2019-01-20T14:31:49.163Z,4.80
2019-01-20T14:34:19.056Z,5.20
2019-01-20T14:36:49.209Z,5.00
2019-01-20T14:39:19.297Z,5.20
2019-01-20T14:41:49.345Z,5.30
2019-01-20T14:44:19.435Z,5.40
2019-01-20T14:46:49.392Z,5.50
2019-01-20T14:49:19.464Z,4.90
2019-01-20T14:51:49.521Z,4.80
2019-01-20T14:54:19.703Z,5.10
2019-01-20T14:56:49.640Z,4.90
2019-01-20T14:59:20.058Z,4.90
2019-01-20T15:01:50.076Z,4.90
2019-01-20T15:04:20.462Z,4.70
2019-01-20T15:06:50.537Z,5.20
2019-01-20T15:09:20.720Z,5.60
2019-01-20T15:11:50.820Z,5.70
2019-01-20T15:14:20.753Z,5.80
2019-01-20T15:16:51.004Z,5.70
2019-01-20T15:19:21.891Z,5.90
2019-01-20T15:21:52.472Z,5.20
2019-01-20T15:24:22.944Z,5.30
2019-01-20T15:26:53.278Z,5.30
2019-01-20T15:29:23.616Z,5.40
2019-01-20T15:31:53.887Z,5.10
2019-01-20T15:34:24.460Z,5.10
2019-01-20T15:36:55.084Z,5.30
2019-01-20T15:39:25.116Z,5.60
2019-01-20T15:41:55.281Z,5.60
2019-01-20T15:44:25.483Z,5.40
2019-01-20T15:46:55.711Z,5.30
2019-01-20T15:49:26.684Z,5.50
2019-01-20T15:51:56.843Z,5.40
2019-01-20T15:54:26.881Z,5.30
2019-01-20T15:56:56.775Z,4.90
2019-01-20T15:59:26.791Z,5.30
2019-01-20T16:01:56.964Z,5.40
2019-01-20T16:04:27.056Z,5.50
2019-01-20T16:06:57.644Z,5.60
2019-01-20T16:09:27.617Z,5.80
2019-01-20T16:11:57.377Z,5.90
2019-01-20T16:14:27.705Z,5.90
2019-01-20T16:16:57.829Z,5.90
2019-01-20T16:19:27.764Z,5.80
2019-01-20T16:21:57.944Z,5.70
2019-01-20T16:24:28.113Z,5.70
2019-01-20T16:27:01.073Z,5.80
2019-01-20T16:29:29.988Z,5.70
2019-01-20T16:31:59.977Z,5.80
2019-01-20T16:34:29.925Z,5.70
2019-01-20T16:37:00.000Z,5.80
2019-01-20T16:39:30.122Z,5.80
2019-01-20T16:42:00.134Z,5.90
2019-01-20T16:44:29.968Z,6.00
2019-01-20T16:47:00.060Z,5.80
2019-01-20T16:49:30.339Z,5.70
2019-01-20T16:52:00.491Z,5.80
2019-01-20T16:54:30.545Z,5.90
2019-01-20T16:57:00.420Z,5.90
2019-01-20T16:59:30.562Z,5.90
2019-01-20T17:02:00.573Z,5.90
2019-01-20T17:04:30.541Z,5.90
2019-01-20T17:07:00.614Z,5.90
2019-01-20T17:09:30.662Z,6.00
2019-01-20T17:12:00.740Z,5.90
2019-01-20T17:14:30.837Z,5.90
2019-01-20T17:17:00.768Z,6.00
2019-01-20T17:19:30.690Z,5.80
2019-01-20T17:22:00.733Z,5.90
2019-01-20T17:24:31.027Z,5.90
2019-01-20T17:27:01.615Z,5.90
2019-01-20T17:29:31.794Z,5.90
2019-01-20T17:32:03.546Z,6.00
2019-01-20T17:34:33.744Z,6.00
2019-01-20T17:37:03.913Z,6.10
2019-01-20T17:39:34.378Z,6.00
2019-01-20T17:42:04.873Z,6.10
2019-01-20T17:44:35.252Z,6.10
2019-01-20T17:47:05.712Z,6.00
2019-01-20T17:49:35.693Z,6.00
2019-01-20T17:52:05.855Z,6.00
2019-01-20T17:54:36.228Z,6.00
2019-01-20T17:57:06.380Z,6.10
2019-01-20T17:59:36.577Z,6.10
2019-01-20T18:02:06.849Z,6.10
2019-01-20T18:04:37.221Z,6.00
2019-01-20T18:07:07.280Z,6.10
2019-01-20T18:09:37.361Z,6.10
2019-01-20T18:12:07.200Z,6.00
2019-01-20T18:14:37.189Z,6.00
2019-01-20T18:17:07.331Z,6.00
2019-01-20T18:19:37.213Z,5.90
2019-01-20T18:22:07.289Z,5.90
2019-01-20T18:24:37.355Z,5.90
2019-01-20T18:27:07.696Z,5.90
2019-01-20T18:29:39.016Z,5.90
2019-01-20T18:32:08.981Z,5.90
2019-01-20T18:34:38.962Z,5.90
2019-01-20T18:37:09.117Z,5.90
2019-01-20T18:39:39.096Z,5.90
2019-01-20T18:42:09.145Z,5.90
2019-01-20T18:44:39.317Z,5.90
2019-01-20T18:47:09.391Z,5.90
2019-01-20T18:49:39.361Z,5.90
2019-01-20T18:52:09.576Z,5.90
2019-01-20T18:54:39.801Z,5.80
2019-01-20T18:57:09.817Z,5.90
2019-01-20T18:59:40.039Z,5.90
2019-01-20T19:02:10.057Z,5.80
2019-01-20T19:04:40.130Z,5.80
2019-01-20T19:07:10.182Z,5.90
2019-01-20T19:09:40.347Z,5.90
2019-01-20T19:12:10.331Z,5.90
2019-01-20T19:14:40.684Z,5.90
2019-01-20T19:17:10.672Z,5.90
2019-01-20T19:19:40.623Z,5.90
2019-01-20T19:22:10.805Z,5.80
2019-01-20T19:24:41.174Z,5.80
2019-01-20T19:27:11.541Z,5.80
2019-01-20T19:29:42.064Z,5.90
2019-01-20T19:32:12.108Z,5.90
2019-01-20T19:34:42.673Z,5.80
2019-01-20T19:37:13.029Z,5.80
2019-01-20T19:39:50.327Z,5.80
2019-01-20T19:42:14.988Z,5.80
2019-01-20T19:44:45.353Z,5.80
2019-01-20T19:47:15.332Z,5.80
2019-01-20T19:49:45.894Z,5.80
2019-01-20T19:52:16.121Z,5.80
2019-01-20T19:54:46.676Z,5.80
2019-01-20T19:57:17.525Z,5.80
2019-01-20T19:59:48.477Z,5.80
2019-01-20T20:02:19.091Z,5.80
2019-01-20T20:04:51.283Z,5.60
2019-01-20T20:07:21.274Z,5.60
2019-01-20T20:09:51.748Z,5.70
2019-01-20T20:12:21.941Z,5.70
2019-01-20T20:14:51.992Z,5.70
2019-01-20T20:17:22.045Z,5.70
2019-01-20T20:19:52.127Z,5.70
2019-01-20T20:22:22.390Z,5.70
2019-01-20T20:24:52.579Z,5.70
2019-01-20T20:27:24.885Z,5.70
2019-01-20T20:29:55.059Z,5.70
2019-01-20T20:32:25.433Z,5.70
2019-01-20T20:34:55.821Z,5.70
2019-01-20T20:37:26.011Z,5.80
2019-01-20T20:39:56.040Z,5.70
2019-01-20T20:42:26.137Z,5.70
2019-01-20T20:44:56.525Z,5.70
2019-01-20T20:47:26.586Z,5.70
2019-01-20T20:49:56.720Z,5.70
2019-01-20T20:52:27.013Z,5.70
2019-01-20T20:54:58.980Z,5.70
2019-01-20T20:57:28.989Z,5.70
2019-01-20T20:59:59.145Z,5.70
2019-01-20T21:02:29.238Z,5.70
2019-01-20T21:05:00.049Z,5.70
2019-01-20T21:07:30.180Z,5.70
2019-01-20T21:10:00.339Z,5.70
2019-01-20T21:12:30.425Z,5.60
2019-01-20T21:15:03.333Z,5.60
2019-01-20T21:17:32.501Z,5.60
2019-01-20T21:20:02.626Z,5.60
2019-01-20T21:22:32.578Z,5.60
2019-01-20T21:25:02.649Z,5.60
2019-01-20T21:27:32.595Z,5.50
2019-01-20T21:30:02.893Z,5.50
2019-01-20T21:32:33.151Z,5.50
2019-01-20T21:35:03.241Z,5.60
2019-01-20T21:37:34.383Z,5.60
2019-01-20T21:40:04.903Z,5.60
2019-01-20T21:42:34.982Z,5.60
2019-01-20T21:45:06.660Z,5.60
2019-01-20T21:47:36.841Z,5.60
2019-01-20T21:50:10.205Z,5.60
2019-01-20T21:52:40.449Z,5.60
2019-01-20T21:55:10.837Z,5.60
2019-01-20T21:57:40.997Z,5.60
2019-01-20T22:00:13.633Z,5.60
2019-01-20T22:02:43.785Z,5.60
2019-01-20T22:05:14.280Z,5.60
2019-01-20T22:07:44.536Z,5.50
2019-01-20T22:10:16.568Z,5.50
2019-01-20T22:12:46.943Z,5.50
2019-01-20T22:15:17.411Z,5.50
2019-01-20T22:17:48.413Z,5.50
2019-01-20T22:20:20.414Z,5.60
2019-01-20T22:22:51.654Z,5.70
2019-01-20T22:25:21.883Z,5.80
2019-01-20T22:27:52.430Z,5.90
2019-01-20T22:30:25.174Z,6.00
2019-01-20T22:32:55.453Z,6.10
2019-01-20T22:35:25.630Z,6.20
2019-01-20T22:37:55.729Z,6.20
2019-01-20T22:40:25.770Z,6.30
2019-01-20T22:42:55.826Z,6.30
2019-01-20T22:45:27.531Z,6.40
2019-01-20T22:47:58.078Z,6.40
2019-01-20T22:50:28.155Z,6.50
2019-01-20T22:52:58.359Z,6.50
2019-01-20T22:55:28.340Z,6.40
2019-01-20T22:57:58.284Z,5.90
2019-01-20T23:00:49.033Z,6.20
2019-01-20T23:03:18.831Z,6.40
2019-01-20T23:05:51.444Z,6.60
2019-01-20T23:08:21.631Z,6.70
2019-01-20T23:10:51.673Z,6.60
2019-01-20T23:13:22.790Z,6.60
2019-01-20T23:15:53.032Z,6.60
2019-01-20T23:18:23.300Z,6.50
2019-01-20T23:20:53.568Z,6.70
2019-01-20T23:23:23.757Z,6.80
2019-01-20T23:25:53.816Z,6.70
2019-01-20T23:28:23.745Z,6.60
2019-01-20T23:30:53.877Z,6.80
2019-01-20T23:33:23.976Z,6.80
2019-01-20T23:35:53.934Z,6.80
2019-01-20T23:38:24.095Z,6.90
2019-01-20T23:40:54.162Z,6.90
2019-01-20T23:43:24.132Z,7.00
2019-01-20T23:45:54.557Z,7.00
2019-01-20T23:48:24.676Z,7.00
2019-01-20T23:50:55.298Z,6.50
2019-01-20T23:53:25.436Z,6.50
2019-01-20T23:55:55.530Z,6.80
2019-01-20T23:58:25.775Z,7.00
